Time;durP1;ratioP1;P1;durP2;ratioP2;P2;SDS_P1;SDS_P2;PMS_P1;PMS_P2;Temp;Humidity;BMP_temperature;BMP_pressure;BME280_temperature;BME280_humidity;BME280_pressure;Samples;Min_cycle;Max_cycle;Signal;HPM_P1;HPM_P2
2023/01/12 00:00:59;;;;;;;1999.90;999.90;;;;;;;;;;4980462;28;20227;-73
2023/01/12 00:03:27;;;;;;;1999.90;999.90;;;;;;;;;;4988719;28;20246;-74
2023/01/12 00:05:59;;;;;;;1999.90;999.90;;;;;;;;;;4987378;28;20241;-74
2023/01/12 00:08:27;;;;;;;1999.90;999.90;;;;;;;;;;4993012;28;21020;-75
2023/01/12 00:10:55;;;;;;;1999.90;999.90;;;;;;;;;;4985973;28;20230;-74
2023/01/12 00:13:23;;;;;;;1999.90;999.90;;;;;;;;;;4986558;28;21474;-74
2023/01/12 00:18:36;;;;;;;1999.90;999.90;;;;;;;;;;4989673;28;20242;-74
2023/01/12 00:21:07;;;;;;;1999.90;999.90;;;;;;;;;;4986262;28;20230;-75
2023/01/12 00:23:35;;;;;;;1999.90;999.90;;;;;;;;;;4989279;28;20231;-74
2023/01/12 00:26:03;;;;;;;1999.90;999.90;;;;;;;;;;4970246;28;20234;-71
2023/01/12 00:28:31;;;;;;;1999.90;999.90;;;;;;;;;;4987708;28;20230;-75
2023/01/12 00:31:02;;;;;;;1999.90;999.90;;;;;;;;;;4986921;28;20238;-74
2023/01/12 00:33:30;;;;;;;1999.90;999.90;;;;;;;;;;4987209;28;20234;-71
2023/01/12 00:36:01;;;;;;;1999.90;999.90;;;;;;;;;;4970489;28;20230;-73
2023/01/12 00:38:32;;;;;;;1999.90;999.90;;;;;;;;;;4990872;28;20267;-74
2023/01/12 00:41:04;;;;;;;1999.90;999.90;;;;;;;;;;4994462;28;20325;-73
2023/01/12 00:46:17;;;;;;;1999.90;999.90;;;;;;;;;;4991880;28;20218;-74
2023/01/12 00:48:45;;;;;;;1999.90;999.90;;;;;;;;;;4986178;28;20238;-75
2023/01/12 00:51:13;;;;;;;1999.90;999.90;;;;;;;;;;4986321;28;20230;-74
2023/01/12 00:53:42;;;;;;;1999.90;999.90;;;;;;;;;;5005692;28;20281;-74
2023/01/12 00:56:10;;;;;;;1999.90;999.90;;;;;;;;;;4988024;28;20317;-73
2023/01/12 00:58:38;;;;;;;1999.90;999.90;;;;;;;;;;4987104;28;20234;-75
2023/01/12 01:01:06;;;;;;;1999.90;999.90;;;;;;;;;;4986328;28;20231;-74
2023/01/12 01:03:34;;;;;;;1999.90;999.90;;;;;;;;;;4972214;28;20233;-75
2023/01/12 01:06:02;;;;;;;1999.90;999.90;;;;;;;;;;4972503;28;20809;-74
2023/01/12 01:08:31;;;;;;;1999.90;999.90;;;;;;;;;;4974169;28;20725;-75
2023/01/12 01:11:03;;;;;;;1999.90;999.90;;;;;;;;;;4987282;28;20226;-74
2023/01/12 01:13:31;;;;;;;1999.90;999.90;;;;;;;;;;4994544;28;20249;-74
2023/01/12 01:15:59;;;;;;;1999.90;999.90;;;;;;;;;;4975519;28;20233;-74
2023/01/12 01:18:27;;;;;;;1999.90;999.90;;;;;;;;;;4981290;28;21206;-73
2023/01/12 01:20:55;;;;;;;1999.90;999.90;;;;;;;;;;4974076;28;20369;-71
2023/01/12 01:23:24;;;;;;;1999.90;999.90;;;;;;;;;;4990104;28;20241;-72
2023/01/12 01:25:52;;;;;;;1999.90;999.90;;;;;;;;;;4977965;28;20222;-74
2023/01/12 01:28:22;;;;;;;1999.90;999.90;;;;;;;;;;4976266;28;21579;-72
2023/01/12 01:30:49;;;;;;;1999.90;999.90;;;;;;;;;;4997186;28;20242;-74
2023/01/12 01:33:17;;;;;;;1999.90;999.90;;;;;;;;;;4991838;28;20275;-72
2023/01/12 01:35:45;;;;;;;1999.90;999.90;;;;;;;;;;4973765;28;20776;-71
2023/01/12 01:38:13;;;;;;;1999.90;999.90;;;;;;;;;;4990783;28;20285;-72
2023/01/12 01:40:41;;;;;;;1999.90;999.90;;;;;;;;;;4979857;28;20230;-73
2023/01/12 01:43:13;;;;;;;1999.90;999.90;;;;;;;;;;5008215;28;20231;-73
2023/01/12 01:45:43;;;;;;;1999.90;999.90;;;;;;;;;;4984701;28;20735;-74
2023/01/12 01:48:12;;;;;;;1999.90;999.90;;;;;;;;;;4991820;28;20234;-74
2023/01/12 01:50:41;;;;;;;1999.90;999.90;;;;;;;;;;4999140;28;20920;-73
2023/01/12 01:53:10;;;;;;;1999.90;999.90;;;;;;;;;;4992613;28;20241;-73
2023/01/12 01:55:40;;;;;;;1999.90;999.90;;;;;;;;;;4987572;28;20239;-73
2023/01/12 01:58:10;;;;;;;1999.90;999.90;;;;;;;;;;4992897;28;20233;-72
2023/01/12 02:00:38;;;;;;;1999.90;999.90;;;;;;;;;;4987823;28;20891;-73
2023/01/12 02:03:08;;;;;;;1999.90;999.90;;;;;;;;;;4998581;28;20234;-73
2023/01/12 02:05:37;;;;;;;1999.90;999.90;;;;;;;;;;5007004;28;20289;-73
2023/01/12 02:08:08;;;;;;;1999.90;999.90;;;;;;;;;;4973923;28;20234;-73
2023/01/12 02:10:36;;;;;;;1999.90;999.90;;;;;;;;;;4987874;28;21372;-72
2023/01/12 02:18:44;;;;;;;1999.90;999.90;;;;;;;;;;4989191;28;20292;-74
2023/01/12 02:21:20;;;;;;;1999.90;999.90;;;;;;;;;;4988932;28;20231;-73
2023/01/12 02:24:02;;;;;;;1999.90;999.90;;;;;;;;;;4973908;28;21034;-74
2023/01/12 02:26:53;;;;;;;1999.90;999.90;;;;;;;;;;4983875;28;20293;-73
2023/01/12 02:29:42;;;;;;;1999.90;999.90;;;;;;;;;;5000319;28;20226;-72
2023/01/12 02:32:16;;;;;;;1999.90;999.90;;;;;;;;;;4986860;28;20677;-73
2023/01/12 02:34:48;;;;;;;1999.90;999.90;;;;;;;;;;5007707;28;20312;-72
2023/01/12 02:37:19;;;;;;;1999.90;999.90;;;;;;;;;;4987988;28;20275;-73
2023/01/12 02:39:50;;;;;;;1999.90;999.90;;;;;;;;;;4999424;28;20238;-74
2023/01/12 02:45:09;;;;;;;1999.90;999.90;;;;;;;;;;4986789;28;20241;-73
2023/01/12 02:47:44;;;;;;;1999.90;999.90;;;;;;;;;;4983862;28;20281;-74
2023/01/12 02:50:14;;;;;;;1999.90;999.90;;;;;;;;;;5003462;28;20741;-74
2023/01/12 02:52:45;;;;;;;1999.90;999.90;;;;;;;;;;4989613;28;20242;-74
2023/01/12 02:55:14;;;;;;;1999.90;999.90;;;;;;;;;;4991092;28;20238;-74
2023/01/12 02:57:42;;;;;;;1999.90;999.90;;;;;;;;;;4988803;28;20239;-75
2023/01/12 03:00:13;;;;;;;1999.90;999.90;;;;;;;;;;4988657;28;20244;-73
2023/01/12 03:02:43;;;;;;;1999.90;999.90;;;;;;;;;;4986833;28;20273;-75
2023/01/12 03:05:11;;;;;;;1999.90;999.90;;;;;;;;;;4991068;28;20234;-74
2023/01/12 03:07:46;;;;;;;1999.90;999.90;;;;;;;;;;4991739;28;20225;-74
2023/01/12 03:10:32;;;;;;;1999.90;999.90;;;;;;;;;;4984323;28;20234;-73
2023/01/12 03:13:04;;;;;;;1999.90;999.90;;;;;;;;;;4990630;28;20234;-74
2023/01/12 03:15:33;;;;;;;1999.90;999.90;;;;;;;;;;4991494;28;20225;-74
2023/01/12 03:18:04;;;;;;;1999.90;999.90;;;;;;;;;;4978126;28;20764;-74
2023/01/12 03:20:35;;;;;;;1999.90;999.90;;;;;;;;;;4982989;28;20234;-74
2023/01/12 03:23:09;;;;;;;1999.90;999.90;;;;;;;;;;4968483;28;20226;-74
2023/01/12 03:25:39;;;;;;;1999.90;999.90;;;;;;;;;;4997671;28;20239;-74
2023/01/12 03:28:07;;;;;;;1999.90;999.90;;;;;;;;;;4994102;28;20233;-74
2023/01/12 03:30:37;;;;;;;1999.90;999.90;;;;;;;;;;4972216;28;20242;-74
2023/01/12 03:33:07;;;;;;;1999.90;999.90;;;;;;;;;;4987991;28;20234;-74
2023/01/12 03:35:39;;;;;;;1999.90;999.90;;;;;;;;;;4987670;28;20230;-74
2023/01/12 03:38:09;;;;;;;1999.90;999.90;;;;;;;;;;4983230;28;20239;-74
2023/01/12 03:40:39;;;;;;;1999.90;999.90;;;;;;;;;;4988819;28;20246;-73
2023/01/12 03:43:12;;;;;;;1999.90;999.90;;;;;;;;;;4982488;28;20237;-73
2023/01/12 03:45:42;;;;;;;1999.90;999.90;;;;;;;;;;4988841;28;20245;-75
2023/01/12 03:48:14;;;;;;;1999.90;999.90;;;;;;;;;;4986873;28;20244;-73
2023/01/12 03:50:45;;;;;;;1999.90;999.90;;;;;;;;;;5004008;28;20235;-74
2023/01/12 03:53:13;;;;;;;1999.90;999.90;;;;;;;;;;4987801;28;20374;-74
2023/01/12 03:55:42;;;;;;;1999.90;999.90;;;;;;;;;;4961414;28;20222;-74
2023/01/12 03:58:10;;;;;;;1999.90;999.90;;;;;;;;;;4984826;28;20289;-75
2023/01/12 04:00:38;;;;;;;1999.90;999.90;;;;;;;;;;4989170;28;20691;-74
2023/01/12 04:03:09;;;;;;;1999.90;999.90;;;;;;;;;;4989326;28;20285;-74
2023/01/12 04:05:39;;;;;;;1999.90;999.90;;;;;;;;;;4982162;28;20313;-74
2023/01/12 04:08:06;;;;;;;1999.90;999.90;;;;;;;;;;4984158;28;20264;-74
2023/01/12 04:10:34;;;;;;;1999.90;999.90;;;;;;;;;;4988792;28;20715;-73
2023/01/12 04:13:02;;;;;;;1999.90;999.90;;;;;;;;;;4991019;28;20230;-74
2023/01/12 04:15:30;;;;;;;1999.90;999.90;;;;;;;;;;4986053;28;22169;-74
2023/01/12 04:17:57;;;;;;;1999.90;999.90;;;;;;;;;;4983966;28;20321;-72
2023/01/12 04:20:25;;;;;;;1999.90;999.90;;;;;;;;;;4985048;28;20266;-74
2023/01/12 04:22:53;;;;;;;1999.90;999.90;;;;;;;;;;4970060;28;20619;-73
2023/01/12 04:25:22;;;;;;;1999.90;999.90;;;;;;;;;;4984604;28;20222;-74
2023/01/12 04:27:52;;;;;;;1999.90;999.90;;;;;;;;;;5001413;28;20234;-73
2023/01/12 04:30:23;;;;;;;1999.90;999.90;;;;;;;;;;4993707;28;20230;-73
2023/01/12 04:32:51;;;;;;;1999.90;999.90;;;;;;;;;;4990885;28;20321;-74
2023/01/12 04:35:19;;;;;;;1999.90;999.90;;;;;;;;;;4992318;28;20746;-74
2023/01/12 04:37:47;;;;;;;1999.90;999.90;;;;;;;;;;4998102;28;20230;-74
2023/01/12 04:40:17;;;;;;;1999.90;999.90;;;;;;;;;;4989856;28;20325;-75
2023/01/12 04:43:03;;;;;;;1999.90;999.90;;;;;;;;;;4991240;28;20242;-74
2023/01/12 04:45:35;;;;;;;1999.90;999.90;;;;;;;;;;4987564;28;21074;-76
2023/01/12 04:48:03;;;;;;;1999.90;999.90;;;;;;;;;;4991572;28;21010;-74
2023/01/12 04:50:31;;;;;;;1999.90;999.90;;;;;;;;;;4987174;28;20238;-74
2023/01/12 04:53:01;;;;;;;1999.90;999.90;;;;;;;;;;4992482;28;20256;-74
2023/01/12 04:55:30;;;;;;;1999.90;999.90;;;;;;;;;;4975037;28;20234;-74
2023/01/12 04:57:58;;;;;;;1999.90;999.90;;;;;;;;;;4990018;28;20238;-74
2023/01/12 05:00:26;;;;;;;1999.90;999.90;;;;;;;;;;4987227;28;20260;-74
2023/01/12 05:02:56;;;;;;;1999.90;999.90;;;;;;;;;;4988192;28;20231;-74
2023/01/12 05:05:24;;;;;;;1999.90;999.90;;;;;;;;;;4976416;28;20231;-75
2023/01/12 05:10:39;;;;;;;1999.90;999.90;;;;;;;;;;5007259;28;20313;-75
2023/01/12 05:13:07;;;;;;;1999.90;999.90;;;;;;;;;;4973239;28;20227;-74
2023/01/12 05:15:35;;;;;;;1999.90;999.90;;;;;;;;;;4989477;28;20230;-74
2023/01/12 05:18:03;;;;;;;1999.90;999.90;;;;;;;;;;4971294;28;20825;-74
2023/01/12 05:20:31;;;;;;;1999.90;999.90;;;;;;;;;;4975806;28;20234;-72
2023/01/12 05:22:59;;;;;;;1999.90;999.90;;;;;;;;;;4984331;28;20249;-73
2023/01/12 05:25:28;;;;;;;1999.90;999.90;;;;;;;;;;4973758;28;20725;-73
2023/01/12 05:27:57;;;;;;;1999.90;999.90;;;;;;;;;;4974461;28;20285;-74
2023/01/12 05:30:25;;;;;;;1999.90;999.90;;;;;;;;;;4988565;28;20230;-73
2023/01/12 05:32:53;;;;;;;1999.90;999.90;;;;;;;;;;4971349;28;20227;-73
2023/01/12 05:35:22;;;;;;;1999.90;999.90;;;;;;;;;;4976440;28;20238;-73
2023/01/12 05:37:50;;;;;;;1999.90;999.90;;;;;;;;;;4993336;28;20528;-73
2023/01/12 05:40:18;;;;;;;1999.90;999.90;;;;;;;;;;4976900;28;20261;-74
2023/01/12 05:45:36;;;;;;;1999.90;999.90;;;;;;;;;;4975095;28;21779;-74
2023/01/12 05:48:05;;;;;;;1999.90;999.90;;;;;;;;;;4970279;28;20245;-73
2023/01/12 05:50:33;;;;;;;1999.90;999.90;;;;;;;;;;4991175;28;20231;-74
2023/01/12 05:53:10;;;;;;;1999.90;999.90;;;;;;;;;;4973974;28;20321;-73
2023/01/12 05:55:38;;;;;;;1999.90;999.90;;;;;;;;;;4973884;28;20242;-73
2023/01/12 05:58:07;;;;;;;1999.90;999.90;;;;;;;;;;4982971;28;20231;-72
2023/01/12 06:00:36;;;;;;;1999.90;999.90;;;;;;;;;;4976086;28;20223;-74
2023/01/12 06:03:04;;;;;;;1999.90;999.90;;;;;;;;;;4970640;28;20226;-74
2023/01/12 06:05:32;;;;;;;1999.90;999.90;;;;;;;;;;4973468;28;20226;-74
2023/01/12 06:08:01;;;;;;;1999.90;999.90;;;;;;;;;;4971730;28;20321;-72
2023/01/12 06:10:31;;;;;;;1999.90;999.90;;;;;;;;;;4978072;28;20230;-74
2023/01/12 06:15:46;;;;;;;1999.90;999.90;;;;;;;;;;4972808;28;20345;-73
2023/01/12 06:18:16;;;;;;;1999.90;999.90;;;;;;;;;;4985657;28;20254;-74
2023/01/12 06:20:44;;;;;;;1999.90;999.90;;;;;;;;;;4992110;28;20241;-74
2023/01/12 06:23:12;;;;;;;1999.90;999.90;;;;;;;;;;4987222;28;20227;-74
2023/01/12 06:25:40;;;;;;;1999.90;999.90;;;;;;;;;;4977851;28;20230;-74
2023/01/12 06:28:08;;;;;;;1999.90;999.90;;;;;;;;;;4981139;28;20234;-74
2023/01/12 06:30:36;;;;;;;1999.90;999.90;;;;;;;;;;4974900;28;20230;-73
2023/01/12 06:33:05;;;;;;;1999.90;999.90;;;;;;;;;;4965797;28;20230;-73
2023/01/12 06:35:33;;;;;;;1999.90;999.90;;;;;;;;;;4972509;28;20706;-72
2023/01/12 06:38:01;;;;;;;1999.90;999.90;;;;;;;;;;4999090;28;20800;-71
2023/01/12 06:40:29;;;;;;;1999.90;999.90;;;;;;;;;;4974014;28;20238;-73
2023/01/12 06:42:56;;;;;;;1999.90;999.90;;;;;;;;;;4991797;28;20238;-75
2023/01/12 06:45:24;;;;;;;1999.90;999.90;;;;;;;;;;4975463;28;20221;-75
2023/01/12 06:47:54;;;;;;;1999.90;999.90;;;;;;;;;;4975975;28;20725;-73
2023/01/12 06:50:23;;;;;;;1999.90;999.90;;;;;;;;;;5035067;22;21265;-72
2023/01/12 06:52:51;;;;;;;1999.90;999.90;;;;;;;;;;5004410;28;21927;-72
2023/01/12 06:55:20;;;;;;;1999.90;999.90;;;;;;;;;;5005054;28;20244;-72
2023/01/12 06:57:48;;;;;;;1999.90;999.90;;;;;;;;;;5004038;28;20265;-72
2023/01/12 07:00:17;;;;;;;1999.90;999.90;;;;;;;;;;4999964;28;20234;-73
2023/01/12 07:02:45;;;;;;;1999.90;999.90;;;;;;;;;;5003914;28;20233;-71
2023/01/12 07:05:13;;;;;;;1999.90;999.90;;;;;;;;;;4988429;28;20446;-71
2023/01/12 07:07:42;;;;;;;1999.90;999.90;;;;;;;;;;5016513;28;20233;-72
2023/01/12 07:10:11;;;;;;;1999.90;999.90;;;;;;;;;;5007891;28;20284;-72
2023/01/12 07:12:39;;;;;;;1999.90;999.90;;;;;;;;;;5000787;28;20319;-72
2023/01/12 07:15:07;;;;;;;1999.90;999.90;;;;;;;;;;5009794;28;20237;-71
2023/01/12 07:17:35;;;;;;;1999.90;999.90;;;;;;;;;;5002679;28;20238;-73
2023/01/12 07:20:04;;;;;;;1999.90;999.90;;;;;;;;;;5024687;28;20258;-73
2023/01/12 07:22:32;;;;;;;1999.90;999.90;;;;;;;;;;5003149;28;20345;-72
2023/01/12 07:25:02;;;;;;;1999.90;999.90;;;;;;;;;;4989980;28;20316;-73
2023/01/12 07:27:29;;;;;;;1999.90;999.90;;;;;;;;;;5002311;28;20753;-73
2023/01/12 07:29:58;;;;;;;1999.90;999.90;;;;;;;;;;5009189;28;20234;-72
2023/01/12 07:32:28;;;;;;;1999.90;999.90;;;;;;;;;;5005857;28;20230;-72
2023/01/12 07:34:56;;;;;;;1999.90;999.90;;;;;;;;;;5006234;28;20229;-72
2023/01/12 07:37:24;;;;;;;1999.90;999.90;;;;;;;;;;5003301;28;20304;-72
2023/01/12 07:39:52;;;;;;;1999.90;999.90;;;;;;;;;;5005005;28;20233;-73
2023/01/12 07:42:24;;;;;;;1999.90;999.90;;;;;;;;;;5015644;28;20739;-72
2023/01/12 07:44:52;;;;;;;1999.90;999.90;;;;;;;;;;5009378;28;20685;-72
2023/01/12 07:47:20;;;;;;;1999.90;999.90;;;;;;;;;;5003218;28;20225;-72
2023/01/12 07:49:48;;;;;;;1999.90;999.90;;;;;;;;;;5019969;28;20233;-72
2023/01/12 07:52:16;;;;;;;1999.90;999.90;;;;;;;;;;5005717;28;20324;-72
2023/01/12 07:54:44;;;;;;;1999.90;999.90;;;;;;;;;;5004791;28;20313;-72
2023/01/12 07:57:12;;;;;;;1999.90;999.90;;;;;;;;;;4990181;28;20408;-72
2023/01/12 07:59:41;;;;;;;1999.90;999.90;;;;;;;;;;5019888;28;20230;-72
2023/01/12 08:02:14;;;;;;;1999.90;999.90;;;;;;;;;;4990383;28;20329;-72
2023/01/12 08:04:42;;;;;;;1999.90;999.90;;;;;;;;;;5004701;28;20234;-73
2023/01/12 08:07:10;;;;;;;1999.90;999.90;;;;;;;;;;5000997;28;20813;-74
2023/01/12 08:09:38;;;;;;;1999.90;999.90;;;;;;;;;;5023475;28;20233;-74
2023/01/12 08:12:07;;;;;;;1999.90;999.90;;;;;;;;;;5008299;28;20372;-73
2023/01/12 08:14:36;;;;;;;1999.90;999.90;;;;;;;;;;4989070;28;20233;-73
2023/01/12 08:17:08;;;;;;;1999.90;999.90;;;;;;;;;;5005602;28;20229;-73
2023/01/12 08:19:40;;;;;;;1999.90;999.90;;;;;;;;;;5004296;28;20241;-73
2023/01/12 08:22:10;;;;;;;1999.90;999.90;;;;;;;;;;5019021;28;20754;-73
2023/01/12 08:24:41;;;;;;;1999.90;999.90;;;;;;;;;;5007847;28;20238;-73
2023/01/12 08:27:09;;;;;;;1999.90;999.90;;;;;;;;;;5005168;28;20324;-74
2023/01/12 08:29:40;;;;;;;1999.90;999.90;;;;;;;;;;5009095;28;20237;-73
2023/01/12 08:32:11;;;;;;;1999.90;999.90;;;;;;;;;;5019895;28;20229;-73
2023/01/12 08:34:40;;;;;;;1999.90;999.90;;;;;;;;;;5009259;28;20268;-73
2023/01/12 08:37:09;;;;;;;1999.90;999.90;;;;;;;;;;5007514;28;20313;-73
2023/01/12 08:39:38;;;;;;;1999.90;999.90;;;;;;;;;;5010166;28;20232;-73
2023/01/12 08:42:06;;;;;;;1999.90;999.90;;;;;;;;;;5007994;28;20303;-73
2023/01/12 08:44:34;;;;;;;1999.90;999.90;;;;;;;;;;5002448;28;20226;-73
2023/01/12 08:47:03;;;;;;;1999.90;999.90;;;;;;;;;;5007996;28;20262;-72
2023/01/12 08:49:33;;;;;;;1999.90;999.90;;;;;;;;;;5002650;28;20328;-74
2023/01/12 08:52:00;;;;;;;1999.90;999.90;;;;;;;;;;5003913;28;20238;-73
2023/01/12 08:54:30;;;;;;;1999.90;999.90;;;;;;;;;;5005166;28;20317;-73
2023/01/12 08:56:59;;;;;;;1999.90;999.90;;;;;;;;;;5006416;28;20253;-73
2023/01/12 08:59:26;;;;;;;1999.90;999.90;;;;;;;;;;5002768;28;20237;-73
2023/01/12 09:01:55;;;;;;;1999.90;999.90;;;;;;;;;;4988158;28;20257;-73
2023/01/12 09:04:23;;;;;;;1999.90;999.90;;;;;;;;;;5005464;28;21088;-73
2023/01/12 09:06:53;;;;;;;1999.90;999.90;;;;;;;;;;5006570;28;20230;-73
2023/01/12 09:09:21;;;;;;;1999.90;999.90;;;;;;;;;;5007673;28;20346;-73
2023/01/12 09:11:50;;;;;;;1999.90;999.90;;;;;;;;;;5030035;28;20242;-73
2023/01/12 09:14:18;;;;;;;1999.90;999.90;;;;;;;;;;5021063;28;20221;-73
2023/01/12 09:16:46;;;;;;;1999.90;999.90;;;;;;;;;;5016105;28;20240;-72
2023/01/12 09:19:14;;;;;;;1999.90;999.90;;;;;;;;;;5002515;28;20230;-72
2023/01/12 09:21:42;;;;;;;1999.90;999.90;;;;;;;;;;5013769;28;20239;-71
2023/01/12 09:24:13;;;;;;;1999.90;999.90;;;;;;;;;;5010138;28;20261;-71
2023/01/12 09:26:42;;;;;;;1999.90;999.90;;;;;;;;;;5005715;28;20233;-71
2023/01/12 09:29:11;;;;;;;1999.90;999.90;;;;;;;;;;5003440;28;20238;-71
2023/01/12 09:31:40;;;;;;;1999.90;999.90;;;;;;;;;;5007606;28;20353;-71
2023/01/12 09:34:08;;;;;;;1999.90;999.90;;;;;;;;;;5000907;28;20238;-71
2023/01/12 09:36:37;;;;;;;1999.90;999.90;;;;;;;;;;5019001;28;20230;-71
2023/01/12 09:39:06;;;;;;;1999.90;999.90;;;;;;;;;;5014366;28;20308;-71
2023/01/12 09:47:16;;;;;;;1999.90;999.90;;;;;;;;;;5011774;28;20237;-71
2023/01/12 09:49:48;;;;;;;1999.90;999.90;;;;;;;;;;5011514;28;20300;-74
2023/01/12 09:52:22;;;;;;;1999.90;999.90;;;;;;;;;;5011030;28;20233;-71
2023/01/12 09:54:51;;;;;;;1999.90;999.90;;;;;;;;;;5010394;28;20337;-72
2023/01/12 09:57:49;;;;;;;1999.90;999.90;;;;;;;;;;5010806;28;20975;-74
2023/01/12 10:00:19;;;;;;;1999.90;999.90;;;;;;;;;;4980685;28;20289;-74
2023/01/12 10:02:50;;;;;;;1999.90;999.90;;;;;;;;;;5003285;28;20317;-72
2023/01/12 10:05:22;;;;;;;1999.90;999.90;;;;;;;;;;5009086;28;20308;-73
2023/01/12 10:08:05;;;;;;;1999.90;999.90;;;;;;;;;;5031255;28;20344;-74
2023/01/12 10:10:33;;;;;;;1999.90;999.90;;;;;;;;;;5021508;28;20312;-73
2023/01/12 10:13:04;;;;;;;1999.90;999.90;;;;;;;;;;5012983;28;20797;-73
2023/01/12 10:15:40;;;;;;;1999.90;999.90;;;;;;;;;;5009523;28;20630;-73
2023/01/12 10:18:11;;;;;;;1999.90;999.90;;;;;;;;;;5010523;28;20255;-72
2023/01/12 10:20:40;;;;;;;1999.90;999.90;;;;;;;;;;4989480;28;21011;-73
2023/01/12 10:23:11;;;;;;;1999.90;999.90;;;;;;;;;;5013565;28;20625;-72
2023/01/12 10:25:40;;;;;;;1999.90;999.90;;;;;;;;;;5005272;28;20242;-72
2023/01/12 10:28:11;;;;;;;1999.90;999.90;;;;;;;;;;5012791;28;20234;-72
2023/01/12 10:30:41;;;;;;;1999.90;999.90;;;;;;;;;;5006001;28;20266;-72
2023/01/12 10:33:11;;;;;;;1999.90;999.90;;;;;;;;;;5006310;28;20237;-72
2023/01/12 10:35:48;;;;;;;1999.90;999.90;;;;;;;;;;5009870;28;20248;-73
2023/01/12 10:38:20;;;;;;;1999.90;999.90;;;;;;;;;;5011538;28;20746;-73
2023/01/12 10:41:02;;;;;;;1999.90;999.90;;;;;;;;;;5006398;28;20257;-72
2023/01/12 10:43:32;;;;;;;1999.90;999.90;;;;;;;;;;5011331;28;20328;-72
2023/01/12 10:46:08;;;;;;;1999.90;999.90;;;;;;;;;;5026289;28;20238;-72
2023/01/12 10:48:38;;;;;;;1999.90;999.90;;;;;;;;;;5009448;28;20233;-73
2023/01/12 10:51:07;;;;;;;1999.90;999.90;;;;;;;;;;4989453;28;20295;-73
2023/01/12 10:53:37;;;;;;;1999.90;999.90;;;;;;;;;;5016199;28;20788;-72
2023/01/12 10:56:13;;;;;;;1999.90;999.90;;;;;;;;;;5011506;28;20242;-73
2023/01/12 10:58:41;;;;;;;1999.90;999.90;;;;;;;;;;5033024;28;20239;-73
2023/01/12 11:01:14;;;;;;;1999.90;999.90;;;;;;;;;;5007010;28;20280;-71
2023/01/12 11:03:44;;;;;;;1999.90;999.90;;;;;;;;;;5010686;28;20240;-74
2023/01/12 11:06:21;;;;;;;1999.90;999.90;;;;;;;;;;5014281;28;20261;-71
2023/01/12 11:08:50;;;;;;;1999.90;999.90;;;;;;;;;;4999071;28;20315;-71
2023/01/12 11:11:29;;;;;;;1999.90;999.90;;;;;;;;;;4993686;28;20257;-72
2023/01/12 11:13:58;;;;;;;1999.90;999.90;;;;;;;;;;5009589;28;20718;-72
2023/01/12 11:16:30;;;;;;;1999.90;999.90;;;;;;;;;;5007337;28;20309;-71
2023/01/12 11:19:12;;;;;;;1999.90;999.90;;;;;;;;;;5011774;28;20236;-72
2023/01/12 11:21:42;;;;;;;1999.90;999.90;;;;;;;;;;4993471;28;20233;-72
2023/01/12 11:24:13;;;;;;;1999.90;999.90;;;;;;;;;;5010695;28;20245;-72
2023/01/12 11:26:44;;;;;;;1999.90;999.90;;;;;;;;;;5012585;28;20236;-74
2023/01/12 11:29:20;;;;;;;1999.90;999.90;;;;;;;;;;5014690;28;20232;-74
2023/01/12 11:31:51;;;;;;;1999.90;999.90;;;;;;;;;;5010886;28;20233;-72
2023/01/12 11:34:22;;;;;;;1999.90;999.90;;;;;;;;;;5025248;28;20295;-72
2023/01/12 11:36:51;;;;;;;1999.90;999.90;;;;;;;;;;4985265;28;20226;-72
2023/01/12 11:39:22;;;;;;;1999.90;999.90;;;;;;;;;;5011619;28;20256;-74
2023/01/12 11:44:34;;;;;;;1999.90;999.90;;;;;;;;;;5010682;28;20253;-74
2023/01/12 11:47:05;;;;;;;1999.90;999.90;;;;;;;;;;5009479;28;20238;-74
2023/01/12 11:49:39;;;;;;;1999.90;999.90;;;;;;;;;;5007279;28;20733;-74
2023/01/12 11:52:09;;;;;;;1999.90;999.90;;;;;;;;;;5013671;28;20739;-73
2023/01/12 11:54:38;;;;;;;1999.90;999.90;;;;;;;;;;5008973;28;20240;-73
2023/01/12 11:57:29;;;;;;;1999.90;999.90;;;;;;;;;;5025531;28;20272;-72
2023/01/12 12:00:03;;;;;;;1999.90;999.90;;;;;;;;;;5010677;28;20320;-72
2023/01/12 12:02:41;;;;;;;1999.90;999.90;;;;;;;;;;5005953;28;21087;-73
2023/01/12 12:05:16;;;;;;;1999.90;999.90;;;;;;;;;;5018204;28;20245;-72
2023/01/12 12:07:53;;;;;;;1999.90;999.90;;;;;;;;;;5021710;28;20230;-73
2023/01/12 12:10:22;;;;;;;1999.90;999.90;;;;;;;;;;5008773;28;20257;-72
2023/01/12 12:13:09;;;;;;;1999.90;999.90;;;;;;;;;;5007093;28;20238;-72
2023/01/12 12:15:41;;;;;;;1999.90;999.90;;;;;;;;;;5001137;28;20233;-72
2023/01/12 12:18:17;;;;;;;1999.90;999.90;;;;;;;;;;5022003;28;20232;-73
2023/01/12 12:20:49;;;;;;;1999.90;999.90;;;;;;;;;;5009559;28;20340;-73
2023/01/12 12:23:22;;;;;;;1999.90;999.90;;;;;;;;;;5006776;28;20738;-73
2023/01/12 12:25:56;;;;;;;1999.90;999.90;;;;;;;;;;5005280;28;20233;-72
2023/01/12 12:28:45;;;;;;;1999.90;999.90;;;;;;;;;;5011104;28;21219;-72
2023/01/12 12:31:23;;;;;;;1999.90;999.90;;;;;;;;;;4986723;28;20609;-72
2023/01/12 12:33:59;;;;;;;1999.90;999.90;;;;;;;;;;5006743;28;20316;-72
2023/01/12 12:36:31;;;;;;;1999.90;999.90;;;;;;;;;;5013490;28;20228;-73
2023/01/12 12:39:24;;;;;;;1999.90;999.90;;;;;;;;;;5026361;28;20229;-73
2023/01/12 12:47:45;;;;;;;1999.90;999.90;;;;;;;;;;5010694;28;20233;-72
2023/01/12 12:50:17;;;;;;;1999.90;999.90;;;;;;;;;;5010255;28;20264;-73
2023/01/12 12:52:47;;;;;;;1999.90;999.90;;;;;;;;;;5021013;28;20242;-73
2023/01/12 12:55:15;;;;;;;1999.90;999.90;;;;;;;;;;5005745;28;20316;-73
2023/01/12 12:58:00;;;;;;;1999.90;999.90;;;;;;;;;;5023606;28;20317;-72
2023/01/12 13:00:29;;;;;;;1999.90;999.90;;;;;;;;;;5002854;28;20344;-72
2023/01/12 13:02:57;;;;;;;1999.90;999.90;;;;;;;;;;5010973;28;20700;-73
2023/01/12 13:05:43;;;;;;;1999.90;999.90;;;;;;;;;;5005726;28;20248;-72
2023/01/12 13:08:20;;;;;;;1999.90;999.90;;;;;;;;;;5012530;28;20313;-72
2023/01/12 13:10:50;;;;;;;1999.90;999.90;;;;;;;;;;5023411;28;20237;-73
2023/01/12 13:13:24;;;;;;;1999.90;999.90;;;;;;;;;;5011496;28;20316;-72
2023/01/12 13:16:19;;;;;;;1999.90;999.90;;;;;;;;;;5011064;28;20295;-73
2023/01/12 13:19:01;;;;;;;1999.90;999.90;;;;;;;;;;5012814;28;20234;-72
2023/01/12 13:21:31;;;;;;;1999.90;999.90;;;;;;;;;;5009742;28;20241;-72
2023/01/12 13:24:24;;;;;;;1999.90;999.90;;;;;;;;;;5011372;28;20820;-73
2023/01/12 13:26:54;;;;;;;1999.90;999.90;;;;;;;;;;5025550;28;20252;-73
2023/01/12 13:29:36;;;;;;;1999.90;999.90;;;;;;;;;;5011521;28;20308;-73
2023/01/12 13:32:23;;;;;;;1999.90;999.90;;;;;;;;;;5011767;28;20313;-72
2023/01/12 13:34:51;;;;;;;1999.90;999.90;;;;;;;;;;5011200;28;20686;-73
2023/01/12 13:37:23;;;;;;;1999.90;999.90;;;;;;;;;;5013151;28;20229;-72
2023/01/12 13:39:57;;;;;;;1999.90;999.90;;;;;;;;;;5008119;28;20990;-73
2023/01/12 13:45:16;;;;;;;1999.90;999.90;;;;;;;;;;5016408;28;20233;-73
2023/01/12 13:47:44;;;;;;;1999.90;999.90;;;;;;;;;;4998828;28;20279;-72
2023/01/12 13:50:16;;;;;;;1999.90;999.90;;;;;;;;;;5010996;28;20258;-72
2023/01/12 13:52:44;;;;;;;1999.90;999.90;;;;;;;;;;5012527;28;20233;-73
2023/01/12 13:55:20;;;;;;;1999.90;999.90;;;;;;;;;;5010151;28;20325;-72
2023/01/12 13:57:55;;;;;;;1999.90;999.90;;;;;;;;;;5023037;28;20229;-73
2023/01/12 14:00:24;;;;;;;1999.90;999.90;;;;;;;;;;5012094;28;20242;-73
2023/01/12 14:02:52;;;;;;;1999.90;999.90;;;;;;;;;;5009252;28;20230;-72
2023/01/12 14:05:28;;;;;;;1999.90;999.90;;;;;;;;;;5014567;28;20736;-73
2023/01/12 14:08:01;;;;;;;1999.90;999.90;;;;;;;;;;5008659;28;21041;-73
2023/01/12 14:10:35;;;;;;;1999.90;999.90;;;;;;;;;;5012154;28;20226;-72
2023/01/12 14:13:11;;;;;;;1999.90;999.90;;;;;;;;;;5013303;28;20252;-72
2023/01/12 14:18:26;;;;;;;1999.90;999.90;;;;;;;;;;5012375;28;20237;-73
2023/01/12 14:20:55;;;;;;;1999.90;999.90;;;;;;;;;;5005922;28;20238;-73
2023/01/12 14:23:23;;;;;;;1999.90;999.90;;;;;;;;;;5017540;28;20332;-73
2023/01/12 14:26:07;;;;;;;1999.90;999.90;;;;;;;;;;5004651;28;20241;-73
2023/01/12 14:28:35;;;;;;;1999.90;999.90;;;;;;;;;;5010766;28;20240;-73
2023/01/12 14:31:03;;;;;;;1999.90;999.90;;;;;;;;;;5008667;28;20738;-72
2023/01/12 14:33:33;;;;;;;1999.90;999.90;;;;;;;;;;5013393;28;20317;-73
2023/01/12 14:36:03;;;;;;;1999.90;999.90;;;;;;;;;;5016644;28;20744;-73
2023/01/12 14:38:33;;;;;;;1999.90;999.90;;;;;;;;;;5012220;28;20237;-72
2023/01/12 14:41:02;;;;;;;1999.90;999.90;;;;;;;;;;5017491;28;20715;-73
2023/01/12 14:46:25;;;;;;;1999.90;999.90;;;;;;;;;;4982099;28;20741;-72